Time;durP1;ratioP1;P1;durP2;ratioP2;P2;SDS_P1;SDS_P2;PMS_P1;PMS_P2;Temp;Humidity;BMP_temperature;BMP_pressure;BME280_temperature;BME280_humidity;BME280_pressure;Samples;Min_cycle;Max_cycle;Signal;HPM_P1;HPM_P2
2022/03/23 00:01:19;;;;;;;89.72;32.65;;;7.20;99.90;;;;;;5015000;28;20096;-73
2022/03/23 00:03:46;;;;;;;87.28;34.28;;;7.10;99.90;;;;;;5013617;28;20546;-74
2022/03/23 00:06:13;;;;;;;91.20;34.88;;;7.10;99.90;;;;;;4997441;28;20046;-73
2022/03/23 00:08:40;;;;;;;91.32;34.55;;;7.10;99.90;;;;;;5013658;28;20085;-74
2022/03/23 00:11:06;;;;;;;94.57;34.40;;;7.00;99.90;;;;;;4998004;28;20093;-73
2022/03/23 00:13:32;;;;;;;101.07;33.92;;;7.00;99.90;;;;;;4997789;28;20081;-76
2022/03/23 00:15:59;;;;;;;85.63;33.95;;;7.00;99.90;;;;;;5013521;28;20045;-73
2022/03/23 00:18:25;;;;;;;;;;;7.00;99.90;;;;;;5015770;28;20116;-74
2022/03/23 00:20:51;;;;;;;94.93;33.53;;;6.90;99.90;;;;;;5013109;28;19922;-74
2022/03/23 00:23:17;;;;;;;102.35;36.95;;;6.90;99.90;;;;;;5013412;28;20096;-74
2022/03/23 00:25:42;;;;;;;128.50;41.10;;;6.90;99.90;;;;;;4997210;28;20046;-74
2022/03/23 00:28:08;;;;;;;129.88;42.30;;;6.90;99.90;;;;;;5013084;28;20474;-74
2022/03/23 00:30:34;;;;;;;133.00;43.90;;;6.90;99.90;;;;;;4998133;28;20469;-76
2022/03/23 00:33:02;;;;;;;131.23;44.20;;;6.80;99.90;;;;;;5014500;28;20501;-74
2022/03/23 00:35:29;;;;;;;138.00;44.50;;;6.80;99.90;;;;;;5015232;28;20092;-74
2022/03/23 00:37:57;;;;;;;121.28;41.83;;;6.70;99.90;;;;;;5013844;28;20038;-73
2022/03/23 00:40:24;;;;;;;124.78;43.72;;;6.70;99.90;;;;;;4997636;28;20149;-74
2022/03/23 00:42:50;;;;;;;119.72;40.85;;;6.70;99.90;;;;;;4997083;28;20053;-74
2022/03/23 00:45:17;;;;;;;118.17;42.00;;;6.60;99.90;;;;;;4997290;28;20405;-73
2022/03/23 00:47:43;;;;;;;128.87;44.23;;;6.60;99.90;;;;;;4981697;28;20377;-74
2022/03/23 00:50:09;;;;;;;108.38;40.35;;;6.60;99.90;;;;;;5015337;28;20085;-74
2022/03/23 00:52:37;;;;;;;117.07;40.63;;;6.60;99.90;;;;;;5013781;28;20119;-75
2022/03/23 00:55:05;;;;;;;130.77;44.67;;;6.60;99.90;;;;;;4997228;28;20132;-73
2022/03/23 00:57:30;;;;;;;120.53;41.47;;;6.60;99.90;;;;;;5012765;28;20050;-74
2022/03/23 00:59:56;;;;;;;104.72;38.95;;;6.60;99.90;;;;;;4996901;28;20116;-73
2022/03/23 01:02:22;;;;;;;113.82;39.65;;;6.60;99.90;;;;;;5013318;28;20145;-74
2022/03/23 01:04:48;;;;;;;107.30;38.70;;;6.50;99.90;;;;;;4996438;28;20453;-74
2022/03/23 01:07:14;;;;;;;106.72;37.58;;;6.50;99.90;;;;;;4996429;28;20156;-74
2022/03/23 01:09:40;;;;;;;100.38;35.85;;;6.50;99.90;;;;;;5012622;28;20085;-77
2022/03/23 01:12:06;;;;;;;96.47;34.53;;;6.60;99.90;;;;;;5012678;28;20080;-75
2022/03/23 01:14:32;;;;;;;103.45;35.45;;;6.60;99.90;;;;;;4996334;28;20390;-74
2022/03/23 01:16:57;;;;;;;98.18;33.47;;;6.60;99.90;;;;;;5012559;28;20045;-74
2022/03/23 01:19:25;;;;;;;102.00;33.83;;;6.70;99.90;;;;;;5013813;28;20078;-73
2022/03/23 01:21:53;;;;;;;98.53;35.00;;;6.60;99.90;;;;;;5012149;28;20347;-73
2022/03/23 01:24:18;;;;;;;99.25;34.47;;;6.70;99.90;;;;;;4996217;28;20061;-73
2022/03/23 01:26:44;;;;;;;91.78;33.17;;;6.70;99.90;;;;;;4996174;28;20052;-74
2022/03/23 01:29:10;;;;;;;89.38;32.80;;;6.70;99.90;;;;;;5012837;28;20049;-70
2022/03/23 01:31:36;;;;;;;95.90;34.25;;;6.60;99.90;;;;;;5014473;28;20064;-69
2022/03/23 01:34:02;;;;;;;96.45;32.90;;;6.60;99.90;;;;;;4998761;28;20098;-70
2022/03/23 01:36:28;;;;;;;101.13;34.35;;;6.60;99.90;;;;;;4983383;28;20045;-70
2022/03/23 01:38:54;;;;;;;102.45;35.42;;;6.50;99.90;;;;;;4999696;28;20129;-69
2022/03/23 01:41:21;;;;;;;97.10;32.97;;;6.50;99.90;;;;;;5016146;28;20108;-70
2022/03/23 01:43:47;;;;;;;103.80;35.20;;;6.50;99.90;;;;;;5016568;28;20046;-69
2022/03/23 01:46:19;;;;;;;100.68;35.22;;;6.50;99.90;;;;;;4998960;28;20073;-69
2022/03/23 01:48:46;;;;;;;98.30;32.53;;;6.40;99.90;;;;;;5014577;28;20066;-72
2022/03/23 01:51:12;;;;;;;;;;;6.30;99.90;;;;;;5014952;28;20069;-69
2022/03/23 01:53:38;;;;;;;89.55;31.48;;;6.30;99.90;;;;;;5014658;28;19925;-70
2022/03/23 01:56:07;;;;;;;93.97;32.50;;;6.20;99.90;;;;;;5015807;28;20038;-69
2022/03/23 01:58:33;;;;;;;98.07;32.28;;;6.20;99.90;;;;;;5016079;28;20068;-70
2022/03/23 02:00:59;;;;;;;86.25;32.40;;;6.20;99.90;;;;;;4982325;28;20113;-69
2022/03/23 02:03:26;;;;;;;101.60;33.63;;;6.10;99.90;;;;;;5016623;28;20054;-69
2022/03/23 02:05:52;;;;;;;88.18;32.85;;;6.10;99.90;;;;;;5001239;28;20050;-70
2022/03/23 02:08:18;;;;;;;91.50;33.03;;;6.10;99.90;;;;;;5000092;28;20507;-69
2022/03/23 02:10:44;;;;;;;87.93;32.78;;;6.10;99.90;;;;;;5016851;28;20100;-69
2022/03/23 02:13:11;;;;;;;95.28;33.38;;;6.10;99.90;;;;;;5017828;28;20057;-70
2022/03/23 02:15:37;;;;;;;89.25;32.30;;;6.00;99.90;;;;;;5015584;28;20038;-70
2022/03/23 02:18:06;;;;;;;97.00;32.53;;;6.00;99.90;;;;;;5015087;28;20038;-70
2022/03/23 02:20:32;;;;;;;92.68;32.88;;;6.00;99.90;;;;;;5014706;28;20077;-68
2022/03/23 02:22:57;;;;;;;87.43;33.15;;;6.00;99.90;;;;;;5014554;28;20064;-69
2022/03/23 02:25:26;;;;;;;93.80;33.17;;;6.00;99.90;;;;;;5016569;28;20053;-69
2022/03/23 02:27:53;;;;;;;95.40;34.20;;;5.90;99.90;;;;;;5015664;28;20108;-71
2022/03/23 02:30:18;;;;;;;104.30;34.13;;;5.90;99.90;;;;;;4997562;28;20050;-69
2022/03/23 02:32:45;;;;;;;88.22;32.05;;;5.80;99.90;;;;;;5015318;28;20052;-70
2022/03/23 02:35:15;;;;;;;91.20;31.97;;;5.80;99.90;;;;;;4980582;28;20369;-69
2022/03/23 02:37:41;;;;;;;98.00;34.78;;;5.80;99.90;;;;;;4996928;28;20049;-71
2022/03/23 02:40:08;;;;;;;99.80;33.47;;;5.80;99.90;;;;;;5017044;28;20149;-70
2022/03/23 02:42:38;;;;;;;102.93;34.30;;;5.80;99.90;;;;;;5021222;28;20097;-69
2022/03/23 02:45:06;;;;;;;93.20;32.65;;;5.80;99.90;;;;;;5018361;28;20401;-70
2022/03/23 02:47:32;;;;;;;98.88;34.28;;;5.70;99.90;;;;;;5014417;28;20050;-70
2022/03/23 02:49:58;;;;;;;90.20;33.05;;;5.80;99.90;;;;;;5013375;28;20061;-69
2022/03/23 02:52:24;;;;;;;97.50;33.53;;;5.80;99.90;;;;;;5013942;28;20069;-69
2022/03/23 03:03:28;;;;;;;98.32;34.03;;;5.70;99.90;;;;;;5011876;28;20054;-70
2022/03/23 03:05:54;;;;;;;107.40;33.05;;;5.60;99.90;;;;;;5011667;28;20050;-70
2022/03/23 03:11:04;;;;;;;104.57;34.75;;;5.60;99.90;;;;;;4997978;28;20057;-70
2022/03/23 03:13:30;;;;;;;97.28;31.17;;;5.50;99.90;;;;;;5017079;28;20058;-69
2022/03/23 03:16:03;;;;;;;91.05;32.05;;;5.40;99.90;;;;;;4981529;28;20063;-70
2022/03/23 03:18:33;;;;;;;90.22;31.52;;;5.40;99.90;;;;;;5013641;28;20077;-71
2022/03/23 03:21:04;;;;;;;93.20;31.77;;;5.30;99.90;;;;;;5015552;28;20149;-69
2022/03/23 03:23:30;;;;;;;91.38;32.75;;;5.30;99.90;;;;;;4998993;28;20053;-69
2022/03/23 03:25:57;;;;;;;90.68;31.95;;;5.20;99.90;;;;;;5015199;28;20089;-71
2022/03/23 03:28:23;;;;;;;101.82;33.75;;;5.20;99.90;;;;;;5015328;28;20061;-70
2022/03/23 03:30:49;;;;;;;92.75;32.22;;;5.20;99.90;;;;;;5016278;28;20050;-70
2022/03/23 03:33:15;;;;;;;100.57;32.75;;;5.20;99.90;;;;;;4982432;28;20431;-70
2022/03/23 03:35:41;;;;;;;111.53;32.47;;;5.10;99.90;;;;;;5016003;28;20164;-70
2022/03/23 03:38:07;;;;;;;100.97;33.78;;;5.10;99.90;;;;;;5014702;28;20150;-70
2022/03/23 03:40:33;;;;;;;97.67;31.53;;;5.10;99.90;;;;;;5014916;28;20513;-70
2022/03/23 03:42:58;;;;;;;88.18;30.80;;;5.10;99.90;;;;;;4998748;28;20050;-72
2022/03/23 03:45:24;;;;;;;96.47;32.35;;;5.10;99.90;;;;;;4966352;28;20089;-70
2022/03/23 03:47:50;;;;;;;92.32;31.92;;;5.00;99.90;;;;;;4998988;28;20051;-70
2022/03/23 03:50:16;;;;;;;97.45;31.40;;;5.00;99.90;;;;;;5014245;28;20104;-70
2022/03/23 03:52:41;;;;;;;97.40;34.53;;;4.90;99.90;;;;;;4997775;28;20049;-70
2022/03/23 03:55:08;;;;;;;103.22;33.53;;;4.90;99.90;;;;;;5014528;28;20140;-70
2022/03/23 03:57:34;;;;;;;93.30;31.85;;;4.90;99.90;;;;;;5015129;28;20482;-70
2022/03/23 04:00:00;;;;;;;100.93;32.50;;;4.90;99.90;;;;;;5016971;28;20164;-71
2022/03/23 04:02:25;;;;;;;96.05;31.42;;;4.80;99.90;;;;;;5002483;28;20058;-69
2022/03/23 04:04:51;;;;;;;102.72;33.53;;;4.80;99.90;;;;;;5016775;28;20125;-69
2022/03/23 04:07:17;;;;;;;100.32;32.83;;;4.80;99.90;;;;;;4998457;28;20085;-70
2022/03/23 04:09:43;;;;;;;90.45;32.60;;;4.80;99.90;;;;;;4998136;28;20121;-70
2022/03/23 04:12:09;;;;;;;101.15;32.47;;;4.70;99.90;;;;;;4997251;28;20053;-70
2022/03/23 04:14:34;;;;;;;95.05;32.55;;;4.70;99.90;;;;;;5013833;28;20045;-70
2022/03/23 04:17:00;;;;;;;95.88;32.42;;;4.70;99.90;;;;;;4981521;28;20061;-70
2022/03/23 04:19:26;;;;;;;97.32;32.63;;;4.70;99.90;;;;;;5015249;28;20074;-70
2022/03/23 04:21:52;;;;;;;91.20;30.70;;;4.70;99.90;;;;;;5014788;28;20478;-71
2022/03/23 04:24:18;;;;;;;96.72;32.30;;;4.70;99.90;;;;;;5014562;28;20394;-71
2022/03/23 04:26:46;;;;;;;108.95;33.28;;;4.70;99.90;;;;;;4998067;28;20038;-70
2022/03/23 04:29:12;;;;;;;108.65;34.78;;;4.70;99.90;;;;;;5013219;28;20049;-70
2022/03/23 04:31:39;;;;;;;105.20;34.38;;;4.70;99.90;;;;;;5013609;28;20050;-70
2022/03/23 04:34:05;;;;;;;107.05;34.30;;;4.80;99.90;;;;;;5013464;28;20065;-71
2022/03/23 04:36:31;;;;;;;96.63;32.67;;;4.80;99.90;;;;;;5013416;28;20136;-70
2022/03/23 04:38:57;;;;;;;102.22;33.38;;;4.70;99.90;;;;;;5015192;28;20093;-70
2022/03/23 04:41:23;;;;;;;104.40;33.88;;;4.80;99.90;;;;;;5013391;28;20490;-70
2022/03/23 04:43:49;;;;;;;114.20;34.95;;;4.90;99.90;;;;;;4997784;28;20366;-69
2022/03/23 04:46:15;;;;;;;110.25;32.42;;;4.90;99.90;;;;;;4997394;28;20124;-71
2022/03/23 04:48:40;;;;;;;102.25;33.30;;;4.90;99.90;;;;;;5014009;28;20085;-70
2022/03/23 04:51:06;;;;;;;104.63;34.83;;;5.00;99.90;;;;;;5015167;28;20499;-71
2022/03/23 04:53:32;;;;;;;100.78;34.90;;;4.90;99.90;;;;;;4997385;28;20049;-70
2022/03/23 04:55:58;;;;;;;104.90;34.55;;;5.00;99.90;;;;;;5013535;28;20049;-70
2022/03/23 04:58:25;;;;;;;100.90;34.65;;;5.10;99.90;;;;;;5014288;28;20428;-70
2022/03/23 05:00:50;;;;;;;102.55;34.45;;;5.00;99.90;;;;;;5013983;28;20149;-70
2022/03/23 05:03:16;;;;;;;99.10;33.35;;;5.00;99.90;;;;;;4996817;28;20085;-70
2022/03/23 05:05:43;;;;;;;105.90;34.90;;;4.90;99.90;;;;;;5014277;28;20085;-70
2022/03/23 05:08:09;;;;;;;106.53;34.88;;;4.90;99.90;;;;;;5014030;28;20069;-71
2022/03/23 05:10:35;;;;;;;97.03;33.30;;;4.90;99.90;;;;;;4980902;28;20124;-69
2022/03/23 05:13:01;;;;;;;109.53;35.90;;;4.80;99.90;;;;;;5012795;28;20080;-70
2022/03/23 05:15:27;;;;;;;112.00;36.85;;;4.70;99.90;;;;;;4980703;28;20053;-70
2022/03/23 05:17:52;;;;;;;100.40;32.50;;;4.70;99.90;;;;;;5013475;28;20042;-71
2022/03/23 05:20:19;;;;;;;96.43;32.88;;;4.60;99.90;;;;;;5013078;28;20496;-69
2022/03/23 05:22:45;;;;;;;102.22;33.58;;;4.60;99.90;;;;;;5014278;28;20048;-71
2022/03/23 05:25:13;;;;;;;100.43;34.27;;;4.60;99.90;;;;;;5014119;28;20049;-71
2022/03/23 05:27:40;;;;;;;106.97;33.92;;;4.60;99.90;;;;;;5013241;28;20060;-72
2022/03/23 05:30:08;;;;;;;102.13;33.67;;;4.50;99.90;;;;;;5013382;28;20050;-70
2022/03/23 05:32:35;;;;;;;102.65;35.97;;;4.50;99.90;;;;;;4997157;28;20053;-70
2022/03/23 05:35:01;;;;;;;113.20;36.00;;;4.50;99.90;;;;;;4997335;28;20064;-71
2022/03/23 05:37:27;;;;;;;127.70;40.30;;;4.50;99.90;;;;;;5012556;28;20041;-69
2022/03/23 05:39:53;;;;;;;126.45;37.85;;;4.50;99.90;;;;;;5012602;28;20108;-71
2022/03/23 05:42:19;;;;;;;123.30;40.88;;;4.50;99.90;;;;;;4979890;28;20046;-70
2022/03/23 05:44:45;;;;;;;125.65;37.25;;;4.50;99.90;;;;;;5011764;28;20053;-71
2022/03/23 05:47:11;;;;;;;136.38;40.67;;;4.50;99.90;;;;;;4980687;28;20233;-71
2022/03/23 05:49:37;;;;;;;160.60;43.38;;;4.50;99.90;;;;;;5012047;28;20124;-70
2022/03/23 05:52:04;;;;;;;159.43;45.63;;;4.40;99.90;;;;;;5015148;28;20057;-70
2022/03/23 05:54:30;;;;;;;146.10;42.97;;;4.40;99.90;;;;;;5011130;28;20057;-71
2022/03/23 05:56:57;;;;;;;143.43;41.55;;;4.50;99.90;;;;;;5024093;28;20045;-71
2022/03/23 05:59:23;;;;;;;149.95;41.97;;;4.50;99.90;;;;;;4997469;28;20042;-72
2022/03/23 06:01:49;;;;;;;125.22;38.47;;;4.50;99.90;;;;;;4998343;28;20054;-70
2022/03/23 06:04:15;;;;;;;128.35;38.95;;;4.50;99.90;;;;;;4980589;28;20095;-72
2022/03/23 06:06:41;;;;;;;130.30;39.63;;;4.50;99.90;;;;;;4984572;28;20092;-70
2022/03/23 06:09:07;;;;;;;132.52;37.55;;;4.60;99.90;;;;;;5001035;28;20061;-70
2022/03/23 06:11:33;;;;;;;117.72;36.88;;;4.60;99.90;;;;;;5000474;28;20049;-69
2022/03/23 06:13:58;;;;;;;115.00;37.15;;;4.70;99.90;;;;;;5000155;28;20054;-70
2022/03/23 06:16:24;;;;;;;107.22;36.58;;;4.70;99.90;;;;;;4999158;28;20038;-71
2022/03/23 06:18:50;;;;;;;120.72;37.95;;;4.80;99.90;;;;;;4998805;28;20045;-71
2022/03/23 06:21:16;;;;;;;113.68;40.00;;;4.80;99.90;;;;;;5015060;28;20517;-72
2022/03/23 06:23:42;;;;;;;117.60;37.63;;;4.90;99.90;;;;;;4996338;28;20129;-70
2022/03/23 06:26:07;;;;;;;113.82;38.25;;;4.90;99.90;;;;;;4995637;28;20512;-71
2022/03/23 06:28:34;;;;;;;112.57;39.03;;;5.00;99.90;;;;;;4979184;28;20084;-71
2022/03/23 06:31:00;;;;;;;110.35;38.35;;;5.10;99.90;;;;;;4996250;28;20058;-69
2022/03/23 06:33:26;;;;;;;109.68;39.28;;;5.20;99.90;;;;;;5012177;28;20046;-70
2022/03/23 06:35:52;;;;;;;108.18;37.70;;;5.30;99.90;;;;;;4980322;28;20088;-70
2022/03/23 06:38:18;;;;;;;115.13;38.97;;;5.40;99.90;;;;;;4995662;28;20061;-71
2022/03/23 06:40:45;;;;;;;110.00;37.30;;;5.50;99.90;;;;;;5013791;28;20133;-70
2022/03/23 06:43:11;;;;;;;105.25;36.15;;;5.60;99.90;;;;;;5012776;28;20085;-71
2022/03/23 06:45:40;;;;;;;103.00;37.13;;;5.70;99.90;;;;;;5011417;28;20068;-69
2022/03/23 06:48:06;;;;;;;105.40;36.35;;;5.80;99.90;;;;;;5012907;28;20057;-70
2022/03/23 06:50:33;;;;;;;110.97;38.53;;;5.90;99.90;;;;;;5012872;28;20057;-69
2022/03/23 06:52:59;;;;;;;106.75;37.58;;;6.00;99.90;;;;;;4999347;28;20053;-70
2022/03/23 06:55:24;;;;;;;110.20;37.80;;;6.10;99.90;;;;;;4997668;28;20062;-71
2022/03/23 06:57:50;;;;;;;117.75;40.10;;;6.20;99.90;;;;;;5021305;28;20050;-69
2022/03/23 07:00:16;;;;;;;104.40;38.17;;;6.40;99.90;;;;;;5006099;28;20480;-70
2022/03/23 07:02:44;;;;;;;112.45;38.00;;;6.40;99.90;;;;;;5002446;28;20056;-69
2022/03/23 07:05:11;;;;;;;110.65;37.88;;;6.50;99.90;;;;;;5016917;28;20053;-70
2022/03/23 07:07:37;;;;;;;;;;;6.70;99.90;;;;;;5017803;28;20073;-70
2022/03/23 07:10:06;;;;;;;101.27;36.77;;;6.80;99.90;;;;;;5017419;28;19927;-69
2022/03/23 07:12:32;;;;;;;103.68;34.63;;;6.90;99.90;;;;;;5015588;28;20053;-70
2022/03/23 07:14:58;;;;;;;98.15;35.67;;;7.00;99.90;;;;;;5015801;28;20105;-69
2022/03/23 07:17:24;;;;;;;94.53;34.13;;;7.20;99.90;;;;;;5015585;28;20129;-73
2022/03/23 07:19:50;;;;;;;97.38;36.17;;;7.40;99.90;;;;;;4999148;28;20053;-70
2022/03/23 07:22:16;;;;;;;95.88;34.03;;;7.50;99.90;;;;;;4999756;28;20072;-69
2022/03/23 07:24:44;;;;;;;93.35;31.88;;;7.60;99.90;;;;;;5015762;28;20041;-70
2022/03/23 07:27:11;;;;;;;91.05;33.25;;;7.80;99.90;;;;;;5015023;28;20058;-69
2022/03/23 07:29:36;;;;;;;85.72;34.03;;;7.90;99.90;;;;;;5016223;28;20046;-70
2022/03/23 07:32:03;;;;;;;88.60;32.63;;;8.10;99.90;;;;;;5014917;28;20053;-70
2022/03/23 07:34:29;;;;;;;89.45;32.20;;;8.20;99.90;;;;;;5014755;28;20148;-69
2022/03/23 07:36:55;;;;;;;85.40;33.25;;;8.30;99.90;;;;;;5016657;28;20514;-70
2022/03/23 07:39:23;;;;;;;83.75;30.83;;;8.40;99.90;;;;;;5014882;28;20394;-69
2022/03/23 07:41:50;;;;;;;81.25;30.95;;;8.60;99.90;;;;;;4998782;28;20045;-69
2022/03/23 07:44:18;;;;;;;84.93;29.85;;;8.70;99.90;;;;;;5016415;28;20049;-69
2022/03/23 07:46:45;;;;;;;80.40;29.67;;;8.80;99.90;;;;;;4998118;28;20049;-69
2022/03/23 07:49:12;;;;;;;81.22;30.25;;;9.00;99.90;;;;;;5014521;28;20505;-70
2022/03/23 07:51:39;;;;;;;80.90;30.77;;;9.10;99.90;;;;;;5015826;28;20052;-70
2022/03/23 07:54:05;;;;;;;70.18;29.73;;;9.20;99.90;;;;;;4999656;28;20054;-70
2022/03/23 07:56:31;;;;;;;78.60;29.98;;;9.40;99.90;;;;;;5017135;28;20175;-70
2022/03/23 07:58:58;;;;;;;72.05;29.98;;;9.60;99.90;;;;;;5018315;28;20403;-70
2022/03/23 08:01:24;;;;;;;70.57;29.50;;;9.70;99.90;;;;;;5000298;28;20061;-70
2022/03/23 08:03:49;;;;;;;74.10;28.55;;;9.80;99.90;;;;;;4999250;28;20054;-71
2022/03/23 08:06:15;;;;;;;81.47;29.08;;;9.90;99.90;;;;;;5014068;28;20050;-71
2022/03/23 08:08:41;;;;;;;77.28;28.83;;;10.00;99.90;;;;;;5017248;28;20135;-71
2022/03/23 08:11:07;;;;;;;67.85;29.45;;;10.10;99.90;;;;;;5014747;28;20490;-70
2022/03/23 08:13:33;;;;;;;75.53;28.88;;;10.20;99.90;;;;;;5016793;28;20041;-70
2022/03/23 08:16:00;;;;;;;68.32;28.67;;;10.30;99.90;;;;;;5015969;28;20055;-71
2022/03/23 08:18:27;;;;;;;70.95;28.52;;;10.40;99.90;;;;;;5016208;28;20147;-70
2022/03/23 08:20:53;;;;;;;62.80;26.40;;;10.60;99.90;;;;;;5017539;28;20045;-70
2022/03/23 08:23:19;;;;;;;56.63;24.13;;;10.70;99.90;;;;;;5016391;28;20052;-69
2022/03/23 08:25:46;;;;;;;62.58;25.55;;;10.90;99.90;;;;;;5015547;28;20046;-68
2022/03/23 08:28:17;;;;;;;56.97;24.80;;;10.90;99.90;;;;;;5015226;28;20050;-68
2022/03/23 08:30:44;;;;;;;57.92;24.90;;;11.10;99.90;;;;;;4997407;28;20069;-69
2022/03/23 08:33:10;;;;;;;62.30;26.58;;;11.20;99.80;;;;;;5013811;28;20058;-69
2022/03/23 08:35:36;;;;;;;59.13;26.08;;;11.30;98.90;;;;;;5014615;28;20491;-70
2022/03/23 08:38:03;;;;;;;58.00;24.90;;;11.40;97.70;;;;;;5014579;28;20115;-69
2022/03/23 08:40:29;;;;;;;57.50;25.42;;;11.50;96.60;;;;;;4997116;28;20415;-70
2022/03/23 08:42:58;;;;;;;56.20;25.08;;;11.60;95.50;;;;;;5013573;28;20184;-69
2022/03/23 08:45:25;;;;;;;55.95;24.60;;;11.80;95.50;;;;;;5015182;28;20141;-70
2022/03/23 08:47:51;;;;;;;58.83;25.30;;;11.80;95.50;;;;;;4997448;28;20053;-70
2022/03/23 08:50:18;;;;;;;58.20;24.10;;;12.00;95.00;;;;;;5013472;28;20526;-69
2022/03/23 08:52:44;;;;;;;55.78;24.42;;;12.10;94.50;;;;;;4996643;28;20085;-70
2022/03/23 08:55:17;;;;;;;56.75;24.20;;;12.30;91.20;;;;;;5014512;28;20131;-70
2022/03/23 08:57:43;;;;;;;51.70;23.70;;;12.40;91.20;;;;;;5013066;28;20050;-69
2022/03/23 09:00:09;;;;;;;52.90;23.25;;;12.50;91.20;;;;;;4981139;28;20045;-70
2022/03/23 09:02:35;;;;;;;49.47;23.75;;;12.50;90.40;;;;;;5000432;28;20093;-71
2022/03/23 09:05:01;;;;;;;49.97;23.95;;;12.60;90.50;;;;;;5014483;28;20104;-70
2022/03/23 09:07:27;;;;;;;50.28;23.52;;;12.70;90.20;;;;;;5012881;28;20056;-70
2022/03/23 09:09:53;;;;;;;46.88;22.40;;;12.80;89.90;;;;;;5013218;28;20060;-69
2022/03/23 09:12:18;;;;;;;47.35;21.73;;;12.90;87.20;;;;;;4980770;28;20389;-70
2022/03/23 09:14:44;;;;;;;43.90;21.20;;;13.00;85.20;;;;;;4997294;28;20398;-69
2022/03/23 09:17:10;;;;;;;45.28;21.52;;;13.00;84.10;;;;;;5014909;28;20406;-69
2022/03/23 09:19:36;;;;;;;52.63;21.88;;;13.10;80.10;;;;;;5013282;28;20046;-70
2022/03/23 09:22:02;;;;;;;44.63;21.70;;;13.30;76.20;;;;;;4996595;28;20046;-71
2022/03/23 09:24:29;;;;;;;49.45;22.35;;;13.40;73.70;;;;;;5013105;28;20128;-69
2022/03/23 09:26:55;;;;;;;48.13;21.13;;;13.40;72.20;;;;;;5012822;28;20049;-69
2022/03/23 09:29:22;;;;;;;42.10;20.83;;;13.50;71.00;;;;;;5013737;28;20050;-69
2022/03/23 09:31:49;;;;;;;47.63;20.77;;;13.60;71.00;;;;;;5014158;28;20159;-69
2022/03/23 09:34:15;;;;;;;45.22;22.10;;;13.60;70.00;;;;;;5014071;28;20128;-69
2022/03/23 09:39:24;;;;;;;42.75;20.77;;;13.70;68.70;;;;;;4998901;28;20442;-69
2022/03/23 09:41:52;;;;;;;45.50;21.88;;;13.70;69.00;;;;;;5014197;28;20097;-69
2022/03/23 09:44:17;;;;;;;46.65;19.58;;;13.80;68.70;;;;;;5013227;28;20049;-69
2022/03/23 09:46:43;;;;;;;43.83;22.33;;;14.00;64.70;;;;;;5013530;28;20057;-70
2022/03/23 09:49:10;;;;;;;33.97;14.63;;;14.20;63.70;;;;;;5013838;28;20050;-68
2022/03/23 09:51:39;;;;;;;38.95;18.35;;;14.30;59.80;;;;;;5014901;28;20045;-70
2022/03/23 09:54:05;;;;;;;46.08;19.88;;;14.30;60.70;;;;;;5013915;28;20092;-69
2022/03/23 09:56:32;;;;;;;39.80;20.83;;;14.40;59.80;;;;;;4998963;28;20053;-71
2022/03/23 09:58:58;;;;;;;45.75;21.38;;;14.30;62.30;;;;;;5001527;28;20285;-69
2022/03/23 10:01:30;;;;;;;44.42;22.05;;;14.30;62.20;;;;;;5022489;28;20048;-68
2022/03/23 10:04:23;;;;;;;41.22;20.05;;;14.40;63.60;;;;;;5016180;28;20109;-71
2022/03/23 10:06:54;;;;;;;38.83;19.05;;;14.40;61.40;;;;;;5015673;28;20060;-71
2022/03/23 10:09:47;;;;;;;42.28;19.42;;;14.50;60.80;;;;;;4997579;28;20112;-69
2022/03/23 10:12:51;;;;;;;39.67;19.90;;;14.70;57.00;;;;;;5015150;28;20049;-69
2022/03/23 10:15:54;;;;;;;44.05;20.48;;;14.80;59.20;;;;;;5007233;28;20478;-70
2022/03/23 10:18:55;;;;;;;42.45;19.85;;;14.80;59.40;;;;;;5015303;28;20050;-71
2022/03/23 10:21:23;;;;;;;42.42;21.05;;;14.80;58.80;;;;;;5013551;28;20058;-69
2022/03/23 10:24:12;;;;;;;41.05;21.23;;;14.80;60.20;;;;;;4997948;28;20072;-70
2022/03/23 10:26:41;;;;;;;39.47;20.42;;;14.90;60.60;;;;;;5016495;28;20057;-69
2022/03/23 10:29:24;;;;;;;42.78;21.23;;;15.00;57.20;;;;;;5014849;28;20124;-70
2022/03/23 10:32:01;;;;;;;43.78;22.35;;;15.00;58.40;;;;;;5015740;28;20053;-69
2022/03/23 10:34:42;;;;;;;41.17;21.65;;;15.00;59.30;;;;;;4997485;28;20549;-70
2022/03/23 10:37:09;;;;;;;43.80;22.40;;;15.00;58.20;;;;;;5016426;28;20054;-69
2022/03/23 10:39:35;;;;;;;;;;;15.10;57.00;;;;;;4995892;28;20046;-69
2022/03/23 10:42:12;;;;;;;51.50;21.53;;;15.20;57.20;;;;;;5014103;28;20341;-70
2022/03/23 10:44:39;;;;;;;;;;;15.30;57.10;;;;;;5015640;28;20100;-71
2022/03/23 10:47:05;;;;;;;39.60;20.85;;;15.30;56.60;;;;;;4996422;28;19921;-69
2022/03/23 10:49:39;;;;;;;42.95;21.02;;;15.30;56.80;;;;;;5012720;28;20076;-70
2022/03/23 10:52:27;;;;;;;46.20;20.60;;;15.40;55.90;;;;;;5014951;28;20054;-69
2022/03/23 10:54:54;;;;;;;40.58;20.38;;;15.50;55.70;;;;;;5013185;28;20046;-70
2022/03/23 10:57:20;;;;;;;;;;;15.50;54.80;;;;;;5013457;28;20045;-69
2022/03/23 10:59:46;;;;;;;41.13;19.83;;;15.50;50.10;;;;;;5014280;28;19952;-70
2022/03/23 11:02:13;;;;;;;44.13;21.23;;;15.50;54.70;;;;;;5013907;28;20046;-70
2022/03/23 11:05:01;;;;;;;;;;;15.60;55.80;;;;;;5012807;28;20474;-67
2022/03/23 11:07:30;;;;;;;41.05;20.60;;;15.60;56.50;;;;;;5012169;28;19929;-69
2022/03/23 11:15:47;;;;;;;39.17;19.35;;;15.80;54.40;;;;;;5011480;28;20054;-69
2022/03/23 11:18:18;;;;;;;34.60;18.27;;;15.90;53.60;;;;;;5012043;28;20042;-69
2022/03/23 11:20:52;;;;;;;41.15;16.95;;;15.90;52.90;;;;;;5011371;28;20050;-70
2022/03/23 11:23:25;;;;;;;37.08;16.92;;;16.00;52.70;;;;;;5011879;28;20176;-69
2022/03/23 11:26:01;;;;;;;37.30;17.15;;;16.20;49.00;;;;;;5012164;28;20054;-69
2022/03/23 11:28:31;;;;;;;39.40;19.17;;;16.10;50.80;;;;;;5011397;28;20041;-69
2022/03/23 11:30:58;;;;;;;40.72;18.83;;;16.10;47.00;;;;;;5012151;28;20784;-70
2022/03/23 11:33:26;;;;;;;43.75;18.60;;;16.20;49.50;;;;;;5012002;28;20049;-68
2022/03/23 11:35:53;;;;;;;39.85;19.13;;;16.20;51.30;;;;;;5011425;28;20085;-69
2022/03/23 11:38:20;;;;;;;;;;;16.30;51.00;;;;;;4995584;28;20056;-70
2022/03/23 11:40:47;;;;;;;39.63;21.05;;;16.30;50.80;;;;;;5012808;28;19921;-69
2022/03/23 11:43:15;;;;;;;37.05;19.02;;;16.30;45.10;;;;;;5016757;28;20060;-70
2022/03/23 11:45:44;;;;;;;40.90;18.90;;;16.30;49.00;;;;;;5015208;28;20099;-70
2022/03/23 11:48:30;;;;;;;40.70;18.15;;;16.30;47.80;;;;;;5016341;28;20104;-69
2022/03/23 11:51:27;;;;;;;37.97;16.40;;;16.40;50.40;;;;;;5014346;28;20124;-69
2022/03/23 11:54:11;;;;;;;39.50;17.45;;;16.60;47.50;;;;;;4997962;28;20052;-70
2022/03/23 11:56:57;;;;;;;40.28;17.48;;;16.50;44.40;;;;;;5014902;28;20050;-69
2022/03/23 11:59:28;;;;;;;38.17;16.17;;;16.50;45.00;;;;;;5014554;28;20050;-70
2022/03/23 12:01:56;;;;;;;37.08;17.85;;;16.50;48.00;;;;;;5015728;28;20370;-71
2022/03/23 12:04:23;;;;;;;35.75;18.77;;;16.50;48.60;;;;;;5014527;28;20054;-68
2022/03/23 12:07:07;;;;;;;38.63;18.35;;;16.50;46.70;;;;;;4998593;28;20133;-69
2022/03/23 12:09:41;;;;;;;36.80;16.83;;;16.50;47.00;;;;;;5014460;28;20053;-71
2022/03/23 12:12:10;;;;;;;36.10;18.55;;;16.50;45.90;;;;;;5015467;28;20490;-68
2022/03/23 12:14:38;;;;;;;39.80;17.63;;;16.60;47.20;;;;;;4998214;28;20045;-72
2022/03/23 12:17:07;;;;;;;37.80;15.63;;;16.70;44.90;;;;;;4998810;28;20136;-70
2022/03/23 12:19:58;;;;;;;40.35;17.65;;;16.60;47.60;;;;;;4998507;28;20045;-70
2022/03/23 12:22:33;;;;;;;36.72;17.20;;;16.70;47.60;;;;;;5015485;28;20046;-69
2022/03/23 12:25:26;;;;;;;35.78;17.27;;;16.80;47.30;;;;;;5013922;28;20056;-72
2022/03/23 12:28:07;;;;;;;34.13;15.50;;;16.80;42.90;;;;;;5014237;28;20046;-70
2022/03/23 12:30:41;;;;;;;40.05;15.05;;;16.90;45.10;;;;;;5014638;28;20050;-68
2022/03/23 12:33:11;;;;;;;35.13;15.07;;;16.90;47.00;;;;;;5015345;28;20061;-71
2022/03/23 12:35:37;;;;;;;39.33;16.88;;;16.90;47.10;;;;;;5014089;28;20057;-70
2022/03/23 12:38:15;;;;;;;39.03;16.95;;;16.90;47.80;;;;;;5014681;28;20049;-70
2022/03/23 12:40:43;;;;;;;41.30;15.95;;;16.90;48.20;;;;;;5015417;28;20050;-69
2022/03/23 12:43:09;;;;;;;46.53;16.20;;;16.90;48.00;;;;;;5015787;28;20107;-69
2022/03/23 12:45:39;;;;;;;42.65;15.05;;;16.90;43.60;;;;;;5014206;28;20077;-70
2022/03/23 12:48:07;;;;;;;32.47;13.10;;;16.90;46.20;;;;;;4998240;28;20353;-71
2022/03/23 12:59:25;;;;;;;34.27;12.47;;;17.00;47.50;;;;;;5018206;28;20057;-70
2022/03/23 13:02:23;;;;;;;42.72;16.95;;;17.10;47.60;;;;;;5002743;28;20116;-71
2022/03/23 13:04:52;;;;;;;37.30;15.27;;;17.10;45.20;;;;;;5011940;28;20062;-70
2022/03/23 13:07:30;;;;;;;34.35;12.50;;;17.10;45.30;;;;;;5016533;28;20061;-70